Time;durP1;ratioP1;P1;durP2;ratioP2;P2;SDS_P1;SDS_P2;PMS_P1;PMS_P2;Temp;Humidity;BMP_temperature;BMP_pressure;BME280_temperature;BME280_humidity;BME280_pressure;Samples;Min_cycle;Max_cycle;Signal;HPM_P1;HPM_P2
2021/11/09 00:00:34;;;;;;;;;69.00;53.00;;;;;9.34;68.90;102261.84;5015292;28;52013;-78
2021/11/09 00:03:00;;;;;;;;;68.75;52.50;;;;;9.34;68.71;102260.13;5014255;28;45542;-79
2021/11/09 00:05:28;;;;;;;;;69.00;52.00;;;;;9.27;68.44;102244.91;5014232;28;46431;-78
2021/11/09 00:08:00;;;;;;;;;69.25;52.75;;;;;9.32;68.68;102261.81;5007297;28;45410;-78
2021/11/09 00:10:27;;;;;;;;;70.50;53.50;;;;;9.26;68.91;102245.72;5014660;28;45566;-80
2021/11/09 00:12:55;;;;;;;;;64.00;51.75;;;;;9.32;68.89;102253.91;5015855;28;45414;-77
2021/11/09 00:15:22;;;;;;;;;68.00;53.25;;;;;9.29;68.91;102247.59;5014079;28;48701;-79
2021/11/09 00:17:50;;;;;;;;;69.75;51.50;;;;;9.14;68.67;102221.53;5013566;28;45643;-78
2021/11/09 00:20:17;;;;;;;;;71.25;54.25;;;;;9.27;68.72;102243.97;5015723;28;45495;-78
2021/11/09 00:22:43;;;;;;;;;72.50;53.50;;;;;9.22;68.89;102246.47;5014331;28;45434;-77
2021/11/09 00:25:08;;;;;;;;;70.00;54.25;;;;;9.24;68.69;102243.88;5015013;28;46267;-78
2021/11/09 00:27:34;;;;;;;;;74.25;54.25;;;;;9.23;68.71;102240.34;5014322;28;45266;-77
2021/11/09 00:30:00;;;;;;;;;70.00;54.25;;;;;9.21;68.65;102243.75;5015518;28;45267;-80
2021/11/09 00:32:25;;;;;;;;;71.25;57.50;;;;;9.22;68.65;102243.81;5015592;28;54215;-77
2021/11/09 00:34:50;;;;;;;;;72.25;54.25;;;;;9.20;68.62;102237.59;5014507;28;60658;-78
2021/11/09 00:37:16;;;;;;;;;73.00;55.25;;;;;9.16;68.40;102240.94;4988383;28;45458;-77
2021/11/09 00:39:42;;;;;;;;;74.50;54.00;;;;;9.17;68.66;102248.91;5011311;28;45706;-77
2021/11/09 00:42:08;;;;;;;;;76.25;54.00;;;;;9.14;68.88;102246.16;5015123;28;45372;-78
2021/11/09 00:44:33;;;;;;;;;72.25;52.25;;;;;9.13;69.19;102243.47;5015176;28;46741;-80
2021/11/09 00:46:59;;;;;;;;;73.50;57.25;;;;;9.10;68.69;102236.31;5015046;28;45238;-78
2021/11/09 00:49:24;;;;;;;;;67.75;52.50;;;;;9.14;68.69;102232.06;5015531;28;45367;-77
2021/11/09 00:51:50;;;;;;;;;71.00;53.25;;;;;9.08;68.71;102238.00;5015665;28;45330;-80
2021/11/09 00:54:16;;;;;;;;;69.00;52.25;;;;;9.11;68.64;102243.41;5014424;28;45900;-79
2021/11/09 00:56:42;;;;;;;;;69.00;54.50;;;;;9.09;68.31;102241.53;5016050;28;45500;-78
2021/11/09 00:59:08;;;;;;;;;75.75;55.50;;;;;9.03;68.91;102229.00;5017208;28;45539;-78
2021/11/09 01:01:34;;;;;;;;;65.00;49.50;;;;;9.06;68.82;102250.22;5019068;28;45544;-78
2021/11/09 01:03:59;;;;;;;;;75.00;56.50;;;;;9.04;68.63;102245.72;5016784;28;46446;-78
2021/11/09 01:06:25;;;;;;;;;67.00;52.50;;;;;9.01;68.80;102246.50;5016474;28;54151;-79
2021/11/09 01:08:50;;;;;;;;;72.00;54.00;;;;;8.97;68.59;102247.22;5016720;28;53838;-79
2021/11/09 01:11:16;;;;;;;;;72.25;54.75;;;;;8.97;68.75;102252.50;5018612;28;45546;-78
2021/11/09 01:13:41;;;;;;;;;71.50;52.00;;;;;8.95;68.48;102243.63;5016450;28;47523;-78
2021/11/09 01:16:07;;;;;;;;;69.75;52.00;;;;;8.97;68.80;102256.88;5017993;28;53534;-79
2021/11/09 01:18:38;;;;;;;;;68.75;54.25;;;;;8.94;68.80;102244.44;5015021;28;45314;-77
2021/11/09 01:21:04;;;;;;;;;75.50;54.25;;;;;8.94;68.82;102244.44;5018483;28;46553;-80
2021/11/09 01:23:29;;;;;;;;;70.25;51.50;;;;;8.89;68.82;102241.66;5017776;28;45665;-80
2021/11/09 01:25:55;;;;;;;;;68.50;52.25;;;;;8.92;68.79;102260.19;5018059;28;45409;-79
2021/11/09 01:28:20;;;;;;;;;74.50;56.25;;;;;8.88;68.75;102255.63;5016913;28;50820;-78
2021/11/09 01:30:46;;;;;;;;;72.00;55.50;;;;;8.90;68.99;102259.25;5016860;28;45370;-78
2021/11/09 01:33:11;;;;;;;;;68.00;52.00;;;;;8.88;68.64;102253.00;4999479;28;61365;-78
2021/11/09 01:35:37;;;;;;;;;65.25;50.75;;;;;8.89;69.19;102265.38;5016920;28;45436;-78
2021/11/09 01:38:03;;;;;;;;;61.25;50.50;;;;;8.89;69.01;102261.81;5001974;28;45425;-81
2021/11/09 01:40:28;;;;;;;;;74.00;51.25;;;;;8.88;68.82;102254.75;5018376;28;45468;-78
2021/11/09 01:42:54;;;;;;;;;68.50;53.75;;;;;8.85;69.35;102254.63;5017701;28;46332;-77
2021/11/09 01:45:20;;;;;;;;;67.50;53.00;;;;;8.89;68.77;102261.81;5000328;28;46066;-78
2021/11/09 01:47:45;;;;;;;;;68.00;51.75;;;;;8.90;68.90;102266.25;5017219;28;52002;-79
2021/11/09 01:50:12;;;;;;;;;70.75;51.25;;;;;8.87;69.23;102253.84;5016679;28;45512;-78
2021/11/09 01:52:38;;;;;;;;;64.75;50.00;;;;;8.88;69.08;102260.91;5016619;28;46197;-79
2021/11/09 01:55:05;;;;;;;;;72.00;49.00;;;;;8.87;69.01;102259.13;5017582;28;45607;-79
2021/11/09 01:57:30;;;;;;;;;63.75;47.75;;;;;8.82;68.99;102247.50;5017852;28;45522;-80
2021/11/09 01:59:58;;;;;;;;;62.50;47.75;;;;;8.78;69.14;102248.19;4999275;28;49665;-78
2021/11/09 02:02:24;;;;;;;;;63.50;48.75;;;;;8.83;68.79;102259.81;5016525;28;48617;-78
2021/11/09 02:04:49;;;;;;;;;61.50;46.50;;;;;8.82;68.66;102258.03;5016725;28;45381;-80
2021/11/09 02:07:15;;;;;;;;;65.25;48.00;;;;;8.80;68.64;102262.34;5017108;28;45445;-78
2021/11/09 02:09:40;;;;;;;;;65.50;52.50;;;;;8.77;68.55;102253.41;5017175;28;45286;-78
2021/11/09 02:12:06;;;;;;;;;59.25;47.50;;;;;8.75;68.91;102256.00;5017473;28;46348;-80
2021/11/09 02:14:31;;;;;;;;;65.00;47.25;;;;;8.73;68.80;102260.28;4999065;28;45251;-78
2021/11/09 02:16:57;;;;;;;;;67.00;49.75;;;;;8.72;68.95;102254.94;5016981;28;54466;-79
2021/11/09 02:19:22;;;;;;;;;62.25;47.25;;;;;8.72;68.70;102262.84;5015455;28;50330;-78
2021/11/09 02:21:48;;;;;;;;;62.25;47.75;;;;;8.71;68.65;102266.31;5016140;28;46456;-78
2021/11/09 02:24:13;;;;;;;;;64.75;47.25;;;;;8.70;68.79;102260.16;5017312;28;45349;-78
2021/11/09 02:26:39;;;;;;;;;62.50;47.00;;;;;8.62;69.04;102251.03;5016656;28;45481;-78
2021/11/09 02:29:04;;;;;;;;;57.75;45.00;;;;;8.68;68.63;102261.81;5017216;28;45577;-77
2021/11/09 02:31:30;;;;;;;;;61.00;47.00;;;;;8.65;68.74;102270.50;5031965;28;47715;-78
2021/11/09 02:33:57;;;;;;;;;60.75;45.25;;;;;8.65;68.75;102274.88;5015354;28;50717;-78
2021/11/09 02:36:22;;;;;;;;;59.25;46.25;;;;;8.58;68.66;102265.81;5017315;28;45437;-78
2021/11/09 02:38:48;;;;;;;;;62.50;47.75;;;;;8.62;68.73;102272.09;5014969;28;53710;-77
2021/11/09 02:41:13;;;;;;;;;65.25;49.00;;;;;8.60;68.51;102273.78;5015574;28;47518;-78
2021/11/09 02:43:39;;;;;;;;;57.75;45.25;;;;;8.60;68.57;102281.69;4998966;28;45432;-79
2021/11/09 02:51:59;;;;;;;;;53.75;44.50;;;;;8.52;68.51;102280.44;4972547;28;46448;-78
2021/11/09 02:54:28;;;;;;;;;56.75;46.25;;;;;8.53;68.67;102283.16;5015707;28;45376;-81
2021/11/09 02:57:01;;;;;;;;;63.50;45.50;;;;;8.45;68.40;102255.59;5016615;28;45384;-81
2021/11/09 02:59:47;;;;;;;;;57.00;46.25;;;;;8.53;68.71;102277.00;5016804;28;45431;-78
2021/11/09 03:02:33;;;;;;;;;62.50;47.25;;;;;8.47;68.66;102267.09;5016275;28;46608;-78
2021/11/09 03:10:10;;;;;;;;;60.50;49.50;;;;;8.49;68.88;102272.44;5015566;28;45476;-80
2021/11/09 03:12:37;;;;;;;;;60.75;45.00;;;;;8.46;68.77;102270.53;5016352;28;46359;-76
2021/11/09 03:15:04;;;;;;;;;57.00;46.00;;;;;8.47;68.81;102271.44;5015815;28;45222;-77
2021/11/09 03:17:46;;;;;;;;;61.25;45.00;;;;;8.46;68.79;102270.53;5012224;28;45143;-78
2021/11/09 03:20:21;;;;;;;;;53.50;44.25;;;;;8.44;68.66;102261.69;5015478;28;45556;-79
2021/11/09 03:47:03;;;;;;;;;56.75;43.00;;;;;8.33;68.65;102262.94;5014760;28;45354;-78
2021/11/09 03:49:31;;;;;;;;;56.25;40.75;;;;;8.28;68.77;102252.22;4998340;28;45175;-78
2021/11/09 03:51:58;;;;;;;;;57.25;45.50;;;;;8.31;68.69;102256.69;5013240;28;45628;-79
2021/11/09 03:54:30;;;;;;;;;52.75;42.50;;;;;8.31;68.74;102254.06;4997895;28;47357;-78
2021/11/09 03:57:04;;;;;;;;;53.25;45.75;;;;;8.28;69.01;102256.59;4999296;28;45314;-79
2021/11/09 04:02:16;;;;;;;;;50.50;43.00;;;;;8.28;68.64;102254.84;5015253;28;45566;-78
2021/11/09 04:07:21;;;;;;;;;54.75;43.00;;;;;8.25;68.67;102259.06;5015926;28;45444;-78
2021/11/09 04:10:07;;;;;;;;;58.50;46.75;;;;;8.27;68.65;102260.94;5012847;28;45260;-78
2021/11/09 04:18:11;;;;;;;;;62.25;44.75;;;;;8.24;68.74;102260.81;4990368;28;45557;-76
2021/11/09 05:08:54;;;;;;;;;62.50;45.75;;;;;8.15;68.80;102297.25;5017302;28;45429;-77
2021/11/09 05:11:20;;;;;;;;;52.25;43.25;;;;;8.10;69.02;102297.03;5018499;28;45296;-78
2021/11/09 05:13:45;;;;;;;;;62.25;46.75;;;;;8.09;68.93;102295.22;5017647;28;45633;-77
2021/11/09 05:16:11;;;;;;;;;59.00;44.50;;;;;8.12;68.99;102303.25;5018050;28;45210;-78
2021/11/09 05:18:36;;;;;;;;;58.00;45.75;;;;;8.13;68.90;102304.16;5015031;28;62461;-79
2021/11/09 05:21:02;;;;;;;;;57.75;47.50;;;;;8.12;68.83;102310.25;5017326;28;45565;-79
2021/11/09 05:23:27;;;;;;;;;60.00;42.75;;;;;8.12;68.99;102315.53;5017171;28;45326;-79
2021/11/09 05:25:53;;;;;;;;;53.00;44.25;;;;;8.10;68.81;102320.72;5017159;28;45570;-77
2021/11/09 05:28:18;;;;;;;;;60.25;44.75;;;;;8.09;69.02;102311.00;5017301;28;61336;-79
2021/11/09 05:30:47;;;;;;;;;58.75;45.25;;;;;8.05;69.00;102311.72;4999051;28;59490;-78
2021/11/09 05:33:13;;;;;;;;;53.00;45.00;;;;;8.09;68.76;102321.53;5017657;28;45467;-78
2021/11/09 05:35:38;;;;;;;;;65.50;48.50;;;;;8.02;68.96;102303.69;4999636;28;45628;-85
2021/11/09 05:38:05;;;;;;;;;62.25;50.00;;;;;8.08;68.98;102317.09;4993644;28;46196;-84
2021/11/09 05:40:35;;;;;;;;;69.50;52.00;;;;;8.07;68.85;102312.69;4996154;28;45703;-84
2021/11/09 05:43:00;;;;;;;;;61.00;46.75;;;;;8.08;69.07;102313.56;5000411;28;45248;-78
2021/11/09 05:45:26;;;;;;;;;65.00;49.00;;;;;8.07;68.88;102320.56;5004957;28;45397;-81
2021/11/09 05:47:51;;;;;;;;;59.25;45.25;;;;;8.06;68.74;102321.41;4997776;28;46743;-85
2021/11/09 05:50:17;;;;;;;;;63.25;50.00;;;;;8.05;68.83;102318.72;5008153;28;53517;-78
2021/11/09 05:52:43;;;;;;;;;67.25;46.00;;;;;7.96;69.00;102308.66;5013307;28;45497;-78
2021/11/09 05:55:08;;;;;;;;;72.00;47.50;;;;;8.04;68.61;102328.34;5004752;28;45454;-76
2021/11/09 05:57:34;;;;;;;;;66.50;51.00;;;;;8.03;68.65;102323.88;5006322;28;57762;-79
2021/11/09 05:59:59;;;;;;;;;55.75;46.25;;;;;8.00;68.87;102326.41;5008986;28;51116;-76
2021/11/09 06:02:25;;;;;;;;;57.50;48.50;;;;;8.00;68.80;102336.03;5009219;28;45516;-77
2021/11/09 06:04:54;;;;;;;;;62.50;46.25;;;;;7.98;68.92;102338.56;5009568;28;50831;-76
2021/11/09 06:07:20;;;;;;;;;58.50;47.25;;;;;7.98;69.05;102348.19;5011075;28;47176;-76
2021/11/09 06:09:45;;;;;;;;;58.75;46.00;;;;;7.97;68.64;102349.91;5011791;28;45531;-76
2021/11/09 06:12:11;;;;;;;;;62.00;49.00;;;;;7.97;68.72;102355.19;5012637;28;45532;-75
2021/11/09 06:14:36;;;;;;;;;65.75;47.75;;;;;7.95;68.80;102355.94;5011644;28;45536;-76
2021/11/09 06:19:33;;;;;;;;;63.50;50.50;;;;;7.95;68.67;102364.75;5061216;22;46725;-75
2021/11/09 06:21:59;;;;;;;;;66.00;49.75;;;;;7.92;68.62;102358.44;5009894;28;49026;-75
2021/11/09 06:24:24;;;;;;;;;70.75;52.75;;;;;7.89;68.78;102353.94;4999678;28;45504;-78
2021/11/09 06:26:50;;;;;;;;;65.50;51.50;;;;;7.93;68.81;102368.13;5000609;28;60877;-76
2021/11/09 06:29:16;;;;;;;;;63.75;49.75;;;;;7.92;68.97;102359.31;5008659;28;45506;-76
2021/11/09 06:31:41;;;;;;;;;63.25;47.25;;;;;7.92;68.77;102369.84;5008745;28;45565;-75
2021/11/09 06:34:07;;;;;;;;;66.50;49.75;;;;;7.89;68.70;102359.19;5008300;28;45458;-75
2021/11/09 06:36:32;;;;;;;;;60.25;45.75;;;;;7.91;68.82;102375.03;5008236;28;59289;-75
2021/11/09 06:38:58;;;;;;;;;61.00;47.00;;;;;7.81;68.78;102358.81;5006244;28;45540;-75
2021/11/09 06:41:23;;;;;;;;;59.00;45.00;;;;;7.89;68.88;102369.72;5015531;28;45357;-78
2021/11/09 06:43:49;;;;;;;;;62.25;47.75;;;;;7.90;68.74;102381.13;5005471;28;45361;-77
2021/11/09 06:46:14;;;;;;;;;63.25;48.75;;;;;7.90;68.80;102375.88;5012227;28;61393;-76
2021/11/09 06:48:40;;;;;;;;;67.25;49.50;;;;;7.85;68.86;102371.28;5005766;28;54797;-75
2021/11/09 06:51:06;;;;;;;;;65.00;50.75;;;;;7.84;68.92;102371.22;5004039;28;45496;-75
2021/11/09 06:53:31;;;;;;;;;64.00;49.25;;;;;7.90;69.00;102383.75;5008743;28;45428;-76
2021/11/09 06:55:57;;;;;;;;;62.00;49.75;;;;;7.91;68.65;102377.66;5002501;28;46319;-73
2021/11/09 06:58:22;;;;;;;;;59.75;45.75;;;;;7.90;68.96;102378.50;5005718;28;45477;-75
2021/11/09 07:00:48;;;;;;;;;67.50;49.25;;;;;7.93;68.99;102379.53;5004028;28;45861;-74
2021/11/09 07:03:13;;;;;;;;;59.50;45.75;;;;;7.87;69.00;102360.84;4998474;28;45624;-74
2021/11/09 07:05:39;;;;;;;;;62.50;49.00;;;;;7.95;68.94;102374.38;5007531;28;45886;-73
2021/11/09 07:08:04;;;;;;;;;61.75;48.00;;;;;7.94;68.99;102378.72;5005870;28;45904;-74
2021/11/09 07:10:30;;;;;;;;;62.50;51.00;;;;;7.96;68.97;102374.44;5007402;28;45567;-74
2021/11/09 07:12:55;;;;;;;;;62.75;46.50;;;;;7.95;69.11;102377.00;5008832;28;45698;-72
2021/11/09 07:15:21;;;;;;;;;56.75;44.25;;;;;7.96;68.77;102370.91;5006615;28;63697;-73
2021/11/09 07:17:48;;;;;;;;;68.00;46.75;;;;;7.96;69.18;102374.44;5007832;28;45563;-74
2021/11/09 07:20:17;;;;;;;;;60.75;46.00;;;;;7.98;69.19;102380.63;5011634;28;45523;-74
2021/11/09 07:22:43;;;;;;;;;54.50;44.00;;;;;7.99;69.06;102385.09;5009998;28;45512;-74
2021/11/09 07:25:09;;;;;;;;;59.25;46.75;;;;;8.01;69.08;102386.06;5012501;28;46311;-74
2021/11/09 07:27:34;;;;;;;;;56.75;43.50;;;;;8.02;69.09;102386.97;5008746;28;45677;-76
2021/11/09 07:30:02;;;;;;;;;61.00;46.75;;;;;7.98;69.20;102379.75;5012251;28;45750;-74
2021/11/09 07:32:27;;;;;;;;;63.25;48.75;;;;;8.00;69.41;102381.63;5007700;28;45681;-75
2021/11/09 07:34:53;;;;;;;;;58.50;45.00;;;;;8.02;69.24;102385.22;5012403;28;55959;-75
2021/11/09 07:37:18;;;;;;;;;62.50;47.50;;;;;8.06;69.31;102396.81;5004065;28;45857;-75
2021/11/09 07:39:44;;;;;;;;;57.50;45.25;;;;;8.05;69.29;102395.91;5007275;28;45532;-74
2021/11/09 07:42:09;;;;;;;;;56.50;44.50;;;;;8.04;69.65;102395.81;5006824;28;45630;-75
2021/11/09 07:44:35;;;;;;;;;59.50;45.00;;;;;8.12;69.36;102410.22;5003350;28;47384;-77
2021/11/09 07:47:00;;;;;;;;;60.00;46.25;;;;;8.16;69.35;102401.66;5013530;28;45545;-74
2021/11/09 07:49:25;;;;;;;;;58.75;44.75;;;;;8.17;69.69;102413.97;5001668;28;45445;-74
2021/11/09 07:51:51;;;;;;;;;51.75;41.75;;;;;8.14;69.42;102406.81;5006627;28;45604;-74
2021/11/09 07:54:22;;;;;;;;;61.75;49.50;;;;;8.22;69.64;102420.34;5001771;28;45850;-74
2021/11/09 07:56:49;;;;;;;;;63.25;47.50;;;;;8.24;69.24;102420.41;5008209;28;45477;-73
2021/11/09 07:59:25;;;;;;;;;63.75;46.00;;;;;8.22;69.69;102411.56;5005008;28;45507;-74
2021/11/09 08:02:02;;;;;;;;;55.50;44.75;;;;;8.29;69.49;102421.53;5010131;28;45766;-73
2021/11/09 08:04:43;;;;;;;;;61.00;47.50;;;;;8.31;69.83;102428.69;5008005;28;46620;-74
2021/11/09 08:09:35;;;;;;;;;63.75;48.25;;;;;8.34;69.65;102420.91;5019089;28;45366;-74
2021/11/09 08:12:02;;;;;;;;;66.50;49.25;;;;;8.39;69.78;102424.69;5003965;28;45635;-75
2021/11/09 08:14:29;;;;;;;;;64.00;48.25;;;;;8.43;69.70;102427.47;5009081;28;47467;-76
2021/11/09 08:16:54;;;;;;;;;64.75;48.75;;;;;8.46;69.93;102425.84;5006059;28;45627;-73
2021/11/09 08:19:20;;;;;;;;;66.75;52.00;;;;;8.45;69.79;102416.16;5008420;28;45581;-73
2021/11/09 08:21:46;;;;;;;;;67.75;53.00;;;;;8.53;69.84;102430.59;5006900;28;45673;-75
2021/11/09 08:24:14;;;;;;;;;70.00;53.00;;;;;8.57;70.04;102434.22;5003839;28;45845;-74
2021/11/09 08:26:39;;;;;;;;;62.00;48.00;;;;;8.58;69.83;102428.16;4997825;28;45378;-74
2021/11/09 08:29:05;;;;;;;;;67.75;48.00;;;;;8.58;70.01;102426.41;5000087;28;45524;-74
2021/11/09 08:31:32;;;;;;;;;64.75;49.75;;;;;8.66;70.25;102432.91;5002873;28;45635;-74
2021/11/09 08:33:59;;;;;;;;;65.00;51.00;;;;;8.67;70.40;102418.00;5000961;28;47409;-75
2021/11/09 08:36:28;;;;;;;;;67.75;49.50;;;;;8.73;70.13;102422.66;5005324;28;45565;-74
2021/11/09 08:38:54;;;;;;;;;65.25;49.50;;;;;8.77;70.43;102430.75;5006460;28;45318;-72
2021/11/09 08:41:25;;;;;;;;;65.00;50.00;;;;;8.81;70.37;102437.97;5005855;28;45485;-71
2021/11/09 08:44:11;;;;;;;;;69.25;51.50;;;;;8.79;70.27;102429.09;5007940;28;46680;-71
2021/11/09 08:46:41;;;;;;;;;65.75;50.25;;;;;8.87;70.51;102429.44;5006606;28;45556;-73
2021/11/09 08:49:08;;;;;;;;;59.75;47.75;;;;;8.90;70.49;102430.47;5007155;28;45517;-74
2021/11/09 08:51:34;;;;;;;;;66.25;51.25;;;;;8.90;70.26;102432.22;5010197;28;46916;-73
2021/11/09 08:54:13;;;;;;;;;69.25;50.00;;;;;8.94;70.22;102439.38;5005455;28;46441;-72
2021/11/09 09:04:34;;;;;;;;;61.25;50.00;;;;;9.05;70.66;102437.22;5009912;28;45772;-72
2021/11/09 09:07:02;;;;;;;;;61.75;48.75;;;;;9.03;71.08;102429.25;5012756;28;45492;-73
2021/11/09 09:09:27;;;;;;;;;65.25;49.25;;;;;9.09;71.01;102434.78;4999195;28;45564;-72
2021/11/09 09:11:54;;;;;;;;;71.25;54.25;;;;;9.11;70.72;102433.13;5005807;28;45512;-73
2021/11/09 09:14:21;;;;;;;;;73.25;55.25;;;;;9.13;70.77;102428.81;5009856;28;47519;-74
2021/11/09 09:16:48;;;;;;;;;70.75;53.00;;;;;9.14;70.88;102438.50;5009276;28;45619;-72
2021/11/09 09:19:14;;;;;;;;;65.25;52.50;;;;;9.15;70.82;102429.75;5009554;28;45504;-72
2021/11/09 09:21:44;;;;;;;;;68.00;53.50;;;;;9.12;70.99;102427.03;5010793;28;45835;-72
2021/11/09 09:24:25;;;;;;;;;66.00;51.25;;;;;9.18;71.36;102424.63;5008214;28;47397;-71
2021/11/09 09:29:39;;;;;;;;;71.00;52.00;;;;;9.24;71.14;102421.34;5010699;28;45496;-72
2021/11/09 09:57:02;;;;;;;;;64.75;48.00;;;;;9.63;70.90;102418.56;5011954;28;45767;-73
2021/11/09 09:59:29;;;;;;;;;63.00;51.00;;;;;9.70;70.93;102420.63;5009495;28;45463;-72
2021/11/09 10:02:10;;;;;;;;;71.50;52.50;;;;;9.62;71.19;102390.38;5008934;28;45481;-73
2021/11/09 10:04:38;;;;;;;;;70.50;54.00;;;;;9.81;71.12;102413.13;5008475;28;45705;-73
2021/11/09 10:07:04;;;;;;;;;64.50;51.00;;;;;9.85;71.17;102423.84;5005098;28;46822;-73
2021/11/09 10:09:34;;;;;;;;;70.75;52.50;;;;;9.93;71.01;102418.88;5012937;28;45470;-74
2021/11/09 10:12:26;;;;;;;;;71.00;52.00;;;;;10.01;70.99;102413.88;5013092;28;45645;-73
2021/11/09 10:14:53;;;;;;;;;62.25;49.75;;;;;10.05;70.66;102411.41;5012590;28;46658;-75
2021/11/09 10:17:21;;;;;;;;;66.00;48.00;;;;;10.11;70.75;102402.84;5008930;28;46420;-74
2021/11/09 10:19:46;;;;;;;;;66.00;53.25;;;;;10.19;70.74;102409.31;5006995;28;45701;-72
2021/11/09 10:22:20;;;;;;;;;71.00;53.75;;;;;10.23;70.71;102406.91;5011789;28;45344;-75
2021/11/09 10:24:57;;;;;;;;;67.25;51.75;;;;;10.29;70.71;102398.31;5012083;28;45655;-73
2021/11/09 10:27:22;;;;;;;;;67.00;51.50;;;;;10.33;70.29;102396.66;5010626;28;47507;-75
2021/11/09 10:29:51;;;;;;;;;60.75;50.00;;;;;10.41;69.90;102403.13;5007013;28;45516;-73
2021/11/09 10:32:19;;;;;;;;;61.75;51.00;;;;;10.46;70.10;102398.91;5006939;28;45688;-73
2021/11/09 10:34:45;;;;;;;;;66.50;50.25;;;;;10.53;69.67;102400.03;5013029;28;45617;-73
2021/11/09 10:37:16;;;;;;;;;65.75;48.25;;;;;10.58;69.63;102401.09;5014686;28;45524;-73
2021/11/09 10:39:47;;;;;;;;;65.50;50.00;;;;;10.65;69.36;102396.13;5012477;28;45452;-73
2021/11/09 10:42:18;;;;;;;;;59.50;48.50;;;;;10.71;69.29;102398.06;5012300;28;45335;-75
2021/11/09 10:44:50;;;;;;;;;66.50;47.25;;;;;10.77;69.50;102398.28;5005411;28;46450;-73
2021/11/09 10:47:23;;;;;;;;;58.00;47.25;;;;;10.81;69.08;102386.94;5004716;28;46430;-74
2021/11/09 10:50:02;;;;;;;;;61.75;49.00;;;;;10.87;69.05;102386.28;5018962;28;45785;-77
2021/11/09 10:52:34;;;;;;;;;59.25;45.50;;;;;10.91;68.80;102394.34;5005653;28;45517;-73
2021/11/09 10:55:21;;;;;;;;;61.75;48.00;;;;;10.95;68.57;102385.69;5013156;28;45512;-74
2021/11/09 11:06:25;;;;;;;;;62.25;49.00;;;;;11.13;67.97;102368.66;5003905;28;45465;-73
2021/11/09 11:09:00;;;;;;;;;63.75;49.00;;;;;11.18;68.22;102364.41;5006968;28;46001;-73
2021/11/09 11:11:29;;;;;;;;;57.75;44.25;;;;;11.24;68.17;102357.59;5012105;28;45216;-73
2021/11/09 11:14:09;;;;;;;;;55.00;43.75;;;;;11.29;68.35;102365.66;5006658;28;45492;-74
2021/11/09 11:16:48;;;;;;;;;58.50;46.00;;;;;11.31;68.31;102350.78;5006890;28;45417;-74
2021/11/09 11:19:18;;;;;;;;;58.75;42.75;;;;;11.33;68.45;102346.41;5006440;28;46477;-73
2021/11/09 11:21:43;;;;;;;;;54.50;42.25;;;;;11.31;68.36;102340.19;5002755;28;45456;-73
2021/11/09 11:24:10;;;;;;;;;54.75;42.00;;;;;11.37;67.82;102345.66;5009050;28;47439;-73
2021/11/09 11:26:36;;;;;;;;;57.75;42.75;;;;;11.41;67.70;102341.38;5006880;28;45472;-73
2021/11/09 11:29:03;;;;;;;;;46.25;38.75;;;;;11.45;67.70;102353.84;5007951;28;45620;-73
2021/11/09 11:31:28;;;;;;;;;54.75;42.00;;;;;11.42;67.75;102341.44;5006323;28;45523;-73
2021/11/09 11:33:54;;;;;;;;;53.50;42.75;;;;;11.50;67.85;102336.38;5006320;28;45510;-73
2021/11/09 11:36:19;;;;;;;;;58.50;44.25;;;;;11.54;67.76;102349.72;5004477;28;45595;-73
2021/11/09 11:38:46;;;;;;;;;53.50;41.50;;;;;11.51;67.13;102335.53;5001359;28;57218;-73
2021/11/09 11:41:12;;;;;;;;;54.25;41.75;;;;;11.60;67.28;102340.19;4995598;28;45374;-74
2021/11/09 11:43:43;;;;;;;;;52.75;42.00;;;;;11.63;67.27;102338.56;4998798;28;45458;-74
2021/11/09 11:46:38;;;;;;;;;47.50;39.75;;;;;11.66;67.31;102335.09;5000782;28;45262;-73
2021/11/09 11:49:10;;;;;;;;;44.75;37.00;;;;;11.67;66.97;102315.75;5004261;28;46513;-78
2021/11/09 11:51:56;;;;;;;;;49.75;38.50;;;;;11.73;67.28;102314.19;5006912;28;45651;-75
2021/11/09 11:54:42;;;;;;;;;46.00;35.00;;;;;11.75;67.13;102316.84;5005708;28;45604;-75
2021/11/09 11:57:07;;;;;;;;;35.50;31.25;;;;;11.77;67.04;102312.50;5008459;28;45636;-77
2021/11/09 11:59:33;;;;;;;;;40.50;30.75;;;;;11.80;66.88;102315.25;5004698;28;46179;-74
2021/11/09 12:02:02;;;;;;;;;35.50;32.50;;;;;11.83;66.56;102307.44;5000383;28;45661;-74
2021/11/09 12:04:43;;;;;;;;;41.50;33.50;;;;;11.78;66.59;102295.78;5011410;28;45550;-78
2021/11/09 12:07:16;;;;;;;;;41.00;34.00;;;;;11.89;66.39;102304.06;5003867;28;45434;-74
2021/11/09 12:09:42;;;;;;;;;36.75;31.50;;;;;11.87;66.43;102296.06;5003328;28;45855;-73
2021/11/09 12:12:11;;;;;;;;;39.00;33.25;;;;;11.92;66.37;102299.75;5002782;28;45360;-75
2021/11/09 12:14:54;;;;;;;;;37.75;33.25;;;;;11.95;66.17;102294.56;5012272;28;45588;-81
2021/11/09 12:17:40;;;;;;;;;42.25;34.75;;;;;11.97;65.51;102291.94;5000847;28;45535;-80
2021/11/09 12:20:14;;;;;;;;;40.00;34.25;;;;;11.98;65.94;102283.16;5013947;28;47782;-79
2021/11/09 12:22:39;;;;;;;;;40.00;34.00;;;;;12.02;65.78;102291.22;5015488;28;45871;-79
2021/11/09 12:25:25;;;;;;;;;36.75;30.25;;;;;12.03;66.00;102271.84;5011847;28;45552;-79
2021/11/09 12:27:53;;;;;;;;;35.25;26.25;;;;;12.05;65.64;102267.50;5004931;28;45668;-76
2021/11/09 12:30:36;;;;;;;;;31.25;25.75;;;;;12.08;65.57;102271.97;5014903;28;47385;-74
2021/11/09 12:33:16;;;;;;;;;19.50;17.50;;;;;12.10;65.50;102267.63;4998090;28;46559;-74
2021/11/09 12:35:47;;;;;;;;;27.25;21.50;;;;;12.12;65.50;102267.66;5007027;28;45320;-75
2021/11/09 12:38:29;;;;;;;;;27.75;21.75;;;;;12.13;65.50;102261.50;5006117;28;45361;-76
2021/11/09 12:40:57;;;;;;;;;28.75;23.25;;;;;12.13;65.60;102265.03;5009945;28;47017;-75
2021/11/09 12:43:29;;;;;;;;;26.00;19.75;;;;;12.14;65.53;102258.88;5014727;28;45411;-76
2021/11/09 12:46:09;;;;;;;;;20.25;19.25;;;;;12.14;65.25;102258.88;5012151;28;45510;-73
2021/11/09 12:48:36;;;;;;;;;24.50;18.75;;;;;12.12;64.67;102243.84;5013068;28;45642;-74
2021/11/09 12:51:11;;;;;;;;;20.33;18.00;;;;;12.14;64.99;102261.53;5013693;28;47035;-73
2021/11/09 12:53:42;;;;;;;;;21.50;16.50;;;;;12.03;64.73;102240.06;4998050;28;45458;-75
2021/11/09 12:56:09;;;;;;;;;18.33;15.33;;;;;12.15;64.63;102255.41;5018454;28;45462;-73
2021/11/09 12:58:44;;;;;;;;;19.67;14.00;;;;;12.15;64.39;102252.75;5019860;28;45484;-73
2021/11/09 13:01:40;;;;;;;;;17.00;17.00;;;;;12.15;64.71;102255.41;5014149;28;46400;-74
2021/11/09 13:04:20;;;;;;;;;19.67;13.67;;;;;12.14;64.21;102248.28;5013335;28;45291;-74
2021/11/09 13:07:09;;;;;;;;;23.00;13.00;;;;;12.16;64.05;102245.72;5006226;28;45519;-74
2021/11/09 13:09:47;;;;;;;;;17.00;11.00;;;;;12.15;64.75;102243.94;5007031;28;45544;-75
2021/11/09 13:12:21;;;;;;;;;12.00;9.67;;;;;12.17;64.32;102252.81;4997936;28;46713;-73
2021/11/09 13:14:51;;;;;;;;;16.67;13.67;;;;;12.17;64.28;102243.09;5008790;28;46675;-74
2021/11/09 13:17:24;;;;;;;;;15.33;10.00;;;;;12.16;64.28;102241.31;5016020;28;45546;-74
2021/11/09 13:19:58;;;;;;;;;20.00;12.33;;;;;12.18;64.41;102246.63;5011115;28;45328;-74
2021/11/09 13:22:29;;;;;;;;;21.00;16.00;;;;;12.16;64.35;102240.41;5006194;28;46926;-74
2021/11/09 13:24:58;;;;;;;;;19.33;13.00;;;;;12.18;64.08;102238.69;5009136;28;45499;-74
2021/11/09 13:27:36;;;;;;;;;22.00;14.00;;;;;12.21;64.02;102238.78;5010932;28;45487;-74
2021/11/09 13:30:27;;;;;;;;;19.00;12.67;;;;;12.23;63.80;102242.38;5009647;28;46400;-75
2021/11/09 13:32:54;;;;;;;;;19.00;12.00;;;;;12.20;63.57;102237.00;5008083;28;63841;-75
2021/11/09 13:35:28;;;;;;;;;17.33;12.00;;;;;12.24;63.78;102230.91;5011476;28;45560;-75
2021/11/09 13:38:10;;;;;;;;;13.67;11.00;;;;;12.25;63.16;102230.97;5009402;28;45512;-75
2021/11/09 13:40:36;;;;;;;;;15.33;10.33;;;;;12.26;63.09;102238.06;5011153;28;45740;-75
2021/11/09 13:43:04;;;;;;;;;14.67;11.00;;;;;12.26;63.14;102227.47;5007505;28;46587;-75
2021/11/09 13:45:29;;;;;;;;;15.33;9.33;;;;;12.25;63.20;102230.06;5015502;28;45634;-75